Time;durP1;ratioP1;P1;durP2;ratioP2;P2;SDS_P1;SDS_P2;PMS_P1;PMS_P2;Temp;Humidity;BMP_temperature;BMP_pressure;BME280_temperature;BME280_humidity;BME280_pressure;Samples;Min_cycle;Max_cycle;Signal;HPM_P1;HPM_P2
2021/06/13 00:01:29;;;;;;;8.15;6.57;;;20.30;77.00;;;;;;5074619;28;20125;-67
2021/06/13 00:03:55;;;;;;;9.13;6.97;;;20.30;76.80;;;;;;5074886;28;20028;-67
2021/06/13 00:06:21;;;;;;;7.72;6.80;;;20.30;76.90;;;;;;5074689;28;20366;-67
2021/06/13 00:08:47;;;;;;;8.77;6.47;;;20.30;76.90;;;;;;5072258;28;20048;-67
2021/06/13 00:11:13;;;;;;;10.63;6.95;;;20.30;77.00;;;;;;5074968;28;20013;-67
2021/06/13 00:13:40;;;;;;;8.88;6.55;;;20.30;77.00;;;;;;5072807;28;20024;-67
2021/06/13 00:16:06;;;;;;;9.70;7.38;;;20.30;77.10;;;;;;5073820;28;20024;-67
2021/06/13 00:18:33;;;;;;;7.75;6.30;;;20.30;77.20;;;;;;5067112;28;20024;-67
2021/06/13 00:20:59;;;;;;;10.25;7.00;;;20.30;77.20;;;;;;5073747;28;20032;-67
2021/06/13 00:23:25;;;;;;;9.07;6.60;;;20.20;77.20;;;;;;5067367;28;20029;-67
2021/06/13 00:25:51;;;;;;;9.25;6.63;;;20.20;77.30;;;;;;5067501;28;20036;-67
2021/06/13 00:28:17;;;;;;;9.20;7.18;;;20.20;77.30;;;;;;5067432;28;20055;-67
2021/06/13 00:30:43;;;;;;;8.05;6.72;;;20.20;77.40;;;;;;5070313;28;20063;-67
2021/06/13 00:33:09;;;;;;;8.40;6.38;;;20.10;77.40;;;;;;5073972;28;20040;-67
2021/06/13 00:35:36;;;;;;;8.65;6.80;;;20.10;77.50;;;;;;5074502;28;20070;-67
2021/06/13 00:38:04;;;;;;;9.70;6.65;;;20.10;77.50;;;;;;5070750;28;20484;-67
2021/06/13 00:40:30;;;;;;;8.32;6.32;;;20.10;78.30;;;;;;5073910;28;20024;-67
2021/06/13 00:42:56;;;;;;;8.07;6.47;;;20.10;77.70;;;;;;5073641;28;20086;-67
2021/06/13 00:45:23;;;;;;;7.63;6.50;;;20.00;77.60;;;;;;5071294;28;20064;-67
2021/06/13 00:47:49;;;;;;;9.52;7.20;;;20.00;77.60;;;;;;5063466;28;20024;-67
2021/06/13 00:50:29;;;;;;;10.32;6.75;;;20.00;77.80;;;;;;5073464;28;20024;-67
2021/06/13 00:52:57;;;;;;;9.32;7.13;;;20.00;77.80;;;;;;5073552;28;20094;-67
2021/06/13 00:55:22;;;;;;;8.82;6.50;;;19.90;77.90;;;;;;5072693;28;20081;-67
2021/06/13 00:57:48;;;;;;;9.05;6.78;;;19.90;77.80;;;;;;5071710;28;20037;-67
2021/06/13 01:00:15;;;;;;;9.30;6.28;;;19.90;77.90;;;;;;5067939;28;20087;-67
2021/06/13 01:02:40;;;;;;;7.88;6.35;;;19.90;77.90;;;;;;5071785;28;20036;-67
2021/06/13 01:05:08;;;;;;;8.55;6.18;;;19.90;78.10;;;;;;5072584;28;20035;-67
2021/06/13 01:07:52;;;;;;;7.32;6.03;;;19.80;78.00;;;;;;5072554;28;20041;-67
2021/06/13 01:10:30;;;;;;;8.90;6.40;;;19.80;77.90;;;;;;5072660;28;20021;-67
2021/06/13 01:13:17;;;;;;;7.47;6.30;;;19.80;77.80;;;;;;5071733;28;20047;-67
2021/06/13 01:15:52;;;;;;;8.48;6.32;;;19.80;77.70;;;;;;5067236;28;20025;-67
2021/06/13 01:18:48;;;;;;;7.15;5.85;;;19.80;78.00;;;;;;5067183;28;20053;-67
2021/06/13 01:21:21;;;;;;;8.63;5.88;;;19.70;77.90;;;;;;5060688;28;20037;-67
2021/06/13 01:24:17;;;;;;;8.57;6.55;;;19.70;78.10;;;;;;5070997;28;20074;-67
2021/06/13 01:26:42;;;;;;;7.68;6.80;;;19.70;78.00;;;;;;5071828;28;20025;-67
2021/06/13 01:29:18;;;;;;;9.35;6.65;;;19.70;78.00;;;;;;5072397;28;20024;-67
2021/06/13 01:31:51;;;;;;;9.32;6.78;;;19.70;78.30;;;;;;5071878;28;20356;-67
2021/06/13 01:34:36;;;;;;;8.15;6.18;;;19.70;78.20;;;;;;5073800;28;20028;-67
2021/06/13 01:37:09;;;;;;;7.43;6.07;;;19.60;78.00;;;;;;5072547;28;20016;-67
2021/06/13 01:39:38;;;;;;;8.55;6.05;;;19.60;78.30;;;;;;5069956;28;20036;-67
2021/06/13 01:42:05;;;;;;;7.80;6.38;;;19.60;78.10;;;;;;5059841;28;20024;-67
2021/06/13 01:44:33;;;;;;;8.55;6.28;;;19.60;78.10;;;;;;5072628;28;20035;-67
2021/06/13 01:47:02;;;;;;;8.40;6.22;;;19.60;78.20;;;;;;5072941;28;20046;-67
2021/06/13 01:49:29;;;;;;;8.30;6.15;;;19.60;78.10;;;;;;5072706;28;20021;-67
2021/06/13 01:51:55;;;;;;;7.28;5.95;;;19.60;78.10;;;;;;5069960;28;20017;-67
2021/06/13 01:54:21;;;;;;;7.57;6.00;;;19.60;78.20;;;;;;5073488;28;20036;-67
2021/06/13 01:56:50;;;;;;;8.48;6.35;;;19.60;78.10;;;;;;5071917;28;20028;-67
2021/06/13 01:59:17;;;;;;;8.73;5.75;;;19.50;78.00;;;;;;5071112;28;20453;-67
2021/06/13 02:01:45;;;;;;;7.70;6.07;;;19.60;78.10;;;;;;5065883;28;20066;-67
2021/06/13 02:04:12;;;;;;;7.70;5.80;;;19.50;78.20;;;;;;5071774;28;20129;-67
2021/06/13 02:06:46;;;;;;;10.38;5.47;;;19.50;78.20;;;;;;5059845;28;20049;-67
2021/06/13 02:09:13;;;;;;;8.38;5.47;;;19.50;78.10;;;;;;5059138;28;20093;-67
2021/06/13 02:11:45;;;;;;;9.13;5.82;;;19.50;78.00;;;;;;5071982;28;20086;-67
2021/06/13 02:14:11;;;;;;;8.05;6.22;;;19.60;78.10;;;;;;5073104;28;20021;-67
2021/06/13 02:16:42;;;;;;;8.35;6.13;;;19.50;78.10;;;;;;5055125;28;20025;-67
2021/06/13 02:19:09;;;;;;;8.15;6.13;;;19.60;78.10;;;;;;5068697;28;20473;-66
2021/06/13 02:21:35;;;;;;;7.60;5.80;;;19.60;78.10;;;;;;5067850;28;20028;-67
2021/06/13 02:24:01;;;;;;;7.53;5.95;;;19.70;77.90;;;;;;5070044;28;20036;-67
2021/06/13 02:26:28;;;;;;;7.35;5.95;;;19.70;77.80;;;;;;5072573;28;20017;-66
2021/06/13 02:28:56;;;;;;;7.00;6.15;;;19.70;77.60;;;;;;5057614;28;20013;-67
2021/06/13 02:31:29;;;;;;;7.68;5.80;;;19.70;77.50;;;;;;5070963;28;20048;-67
2021/06/13 02:33:55;;;;;;;7.47;5.53;;;19.70;77.60;;;;;;5073140;28;20463;-66
2021/06/13 02:36:22;;;;;;;9.05;5.93;;;19.80;77.30;;;;;;5070851;28;20020;-66
2021/06/13 02:38:51;;;;;;;9.07;5.70;;;19.80;77.30;;;;;;5065686;28;20021;-67
2021/06/13 02:41:16;;;;;;;7.93;5.70;;;19.80;77.10;;;;;;5071570;28;20078;-66
2021/06/13 02:43:44;;;;;;;7.47;6.45;;;19.80;77.00;;;;;;5071464;28;20017;-66
2021/06/13 02:46:09;;;;;;;6.82;5.93;;;19.90;76.90;;;;;;5072814;28;20029;-66
2021/06/13 02:48:35;;;;;;;7.03;6.13;;;19.90;76.80;;;;;;5068227;28;20070;-66
2021/06/13 02:51:01;;;;;;;6.25;5.20;;;19.90;76.80;;;;;;5075674;28;20016;-66
2021/06/13 02:53:43;;;;;;;7.45;5.85;;;19.90;76.60;;;;;;5075334;28;20362;-66
2021/06/13 02:56:20;;;;;;;6.65;5.55;;;19.90;76.50;;;;;;5076469;28;20025;-66
2021/06/13 02:58:54;;;;;;;6.68;5.60;;;20.00;76.40;;;;;;5075148;28;20028;-67
2021/06/13 03:01:22;;;;;;;6.78;5.57;;;20.00;76.40;;;;;;5076529;28;20464;-67
2021/06/13 03:03:50;;;;;;;7.18;6.07;;;20.00;76.20;;;;;;5074844;28;20411;-66
2021/06/13 03:06:19;;;;;;;7.40;5.38;;;20.00;76.00;;;;;;5074809;28;20120;-66
2021/06/13 03:08:46;;;;;;;7.05;5.15;;;20.10;75.90;;;;;;5072136;28;20013;-66
2021/06/13 03:11:13;;;;;;;6.97;4.95;;;20.10;75.80;;;;;;5074943;28;20017;-66
2021/06/13 03:13:41;;;;;;;5.93;4.95;;;20.10;75.50;;;;;;5074776;28;20024;-66
2021/06/13 03:16:07;;;;;;;5.85;5.00;;;20.10;75.30;;;;;;5076076;28;20032;-66
2021/06/13 03:18:35;;;;;;;7.72;5.25;;;20.20;75.30;;;;;;5072836;28;20017;-66
2021/06/13 03:21:01;;;;;;;7.22;5.38;;;20.20;75.30;;;;;;5056128;28;20040;-66
2021/06/13 03:23:30;;;;;;;7.70;5.28;;;20.30;75.30;;;;;;5070467;28;20032;-66
2021/06/13 03:26:00;;;;;;;6.53;5.15;;;20.30;75.50;;;;;;5075515;28;20128;-66
2021/06/13 03:28:28;;;;;;;6.80;4.95;;;20.40;75.20;;;;;;5072611;28;20028;-66
2021/06/13 03:30:55;;;;;;;7.30;5.32;;;20.50;75.50;;;;;;5081076;28;20376;-66
2021/06/13 03:33:23;;;;;;;6.88;5.22;;;20.80;76.40;;;;;;5074560;28;20028;-66
2021/06/13 03:35:50;;;;;;;6.97;4.53;;;21.10;76.70;;;;;;5074979;28;20033;-66
2021/06/13 03:38:17;;;;;;;7.63;5.10;;;21.60;76.60;;;;;;5074914;28;20037;-66
2021/06/13 03:40:44;;;;;;;5.90;4.53;;;22.20;75.60;;;;;;5074313;28;20034;-66
2021/06/13 03:43:10;;;;;;;5.00;4.38;;;22.90;73.50;;;;;;5073212;28;20380;-66
2021/06/13 03:45:36;;;;;;;6.47;4.88;;;23.60;71.50;;;;;;5069601;28;20128;-66
2021/06/13 03:48:03;;;;;;;6.45;4.38;;;24.50;69.60;;;;;;5074268;28;20461;-66
2021/06/13 03:50:31;;;;;;;5.70;4.70;;;25.50;67.00;;;;;;5055396;28;20024;-66
2021/06/13 03:52:57;;;;;;;5.47;4.45;;;26.60;64.40;;;;;;5068018;28;20025;-66
2021/06/13 03:55:22;;;;;;;5.85;4.47;;;27.50;62.20;;;;;;5072545;28;20357;-66
2021/06/13 03:57:51;;;;;;;5.32;4.30;;;28.40;60.20;;;;;;5072745;28;20062;-67
2021/06/13 04:00:17;;;;;;;7.05;4.60;;;29.30;58.20;;;;;;5069699;28;20031;-67
2021/06/13 04:02:45;;;;;;;4.40;4.00;;;30.20;56.60;;;;;;5065738;28;20029;-68
2021/06/13 04:05:13;;;;;;;6.43;4.30;;;31.00;54.90;;;;;;5056431;28;20032;-68
2021/06/13 04:07:41;;;;;;;6.10;3.97;;;31.70;53.40;;;;;;5064267;28;20045;-68
2021/06/13 04:10:08;;;;;;;4.97;3.95;;;32.40;51.70;;;;;;5074056;28;20020;-68
2021/06/13 04:12:34;;;;;;;4.32;3.70;;;33.00;50.70;;;;;;5073778;28;20028;-68
2021/06/13 04:15:00;;;;;;;4.28;3.88;;;33.60;49.70;;;;;;5069419;28;20509;-68
2021/06/13 04:17:27;;;;;;;6.18;3.83;;;34.10;48.60;;;;;;5062119;28;20086;-68
2021/06/13 04:19:54;;;;;;;3.97;3.55;;;34.60;47.60;;;;;;5074676;28;20024;-68
2021/06/13 04:22:21;;;;;;;5.30;3.85;;;35.10;47.00;;;;;;5072824;28;20016;-68
2021/06/13 04:24:49;;;;;;;3.90;3.45;;;35.50;46.30;;;;;;5072347;28;20032;-68
2021/06/13 04:27:19;;;;;;;5.45;3.55;;;36.00;45.80;;;;;;5061825;28;20031;-68
2021/06/13 04:29:45;;;;;;;6.10;3.95;;;36.50;45.10;;;;;;5074752;28;20021;-68
2021/06/13 04:32:11;;;;;;;4.18;3.38;;;37.00;44.20;;;;;;5073530;28;20020;-68
2021/06/13 04:34:38;;;;;;;4.18;3.58;;;37.30;43.20;;;;;;5074590;28;20563;-68
2021/06/13 04:37:04;;;;;;;4.85;3.75;;;37.70;42.60;;;;;;5073283;28;20078;-68
2021/06/13 04:39:30;;;;;;;3.78;3.47;;;38.00;42.50;;;;;;5073341;28;20028;-68
2021/06/13 04:41:56;;;;;;;3.40;3.10;;;38.30;41.70;;;;;;5073624;28;20107;-68
2021/06/13 04:44:22;;;;;;;6.10;3.85;;;38.50;41.30;;;;;;5062750;28;20040;-67
2021/06/13 04:46:47;;;;;;;3.85;3.10;;;38.60;40.70;;;;;;5058559;28;20406;-67
2021/06/13 04:49:13;;;;;;;4.40;3.47;;;38.80;40.50;;;;;;5074468;28;20050;-67
2021/06/13 04:51:42;;;;;;;5.20;3.25;;;38.90;40.30;;;;;;5072197;28;20129;-67
2021/06/13 04:54:23;;;;;;;;;;;39.10;39.90;;;;;;5073408;28;20028;-67
2021/06/13 04:57:12;;;;;;;3.58;3.08;;;39.20;41.20;;;;;;5073925;28;19904;-67
2021/06/13 04:59:37;;;;;;;3.72;3.33;;;39.60;41.90;;;;;;5074353;28;20025;-67
2021/06/13 05:02:03;;;;;;;3.65;3.33;;;39.90;40.30;;;;;;5073338;28;20055;-67
2021/06/13 05:04:29;;;;;;;4.00;3.60;;;40.20;39.90;;;;;;5073775;28;20020;-67
2021/06/13 05:06:56;;;;;;;4.07;3.67;;;40.40;39.60;;;;;;5072708;28;20178;-67
2021/06/13 05:09:22;;;;;;;4.30;3.42;;;40.60;38.90;;;;;;5072829;28;20103;-67
2021/06/13 05:11:48;;;;;;;3.95;3.55;;;40.70;38.30;;;;;;5071782;28;20079;-67
2021/06/13 05:14:13;;;;;;;6.25;3.88;;;40.70;38.00;;;;;;5072707;28;20481;-67
2021/06/13 05:16:41;;;;;;;5.15;3.92;;;40.70;38.00;;;;;;5071978;28;20158;-67
2021/06/13 05:19:08;;;;;;;5.40;4.70;;;40.80;37.90;;;;;;5074083;28;20133;-67
2021/06/13 05:21:34;;;;;;;5.50;3.90;;;40.70;37.60;;;;;;5072746;28;20012;-67
2021/06/13 05:24:01;;;;;;;4.90;3.85;;;40.50;37.50;;;;;;5072471;28;20209;-68
2021/06/13 05:26:27;;;;;;;4.68;3.50;;;39.90;37.50;;;;;;5071780;28;20017;-68
2021/06/13 05:28:53;;;;;;;5.60;3.47;;;39.20;38.00;;;;;;5073231;28;20078;-68
2021/06/13 05:31:19;;;;;;;3.72;3.42;;;38.30;38.60;;;;;;5072953;28;20403;-68
2021/06/13 05:33:45;;;;;;;4.22;3.50;;;37.40;39.30;;;;;;5072925;28;20032;-68
2021/06/13 05:36:11;;;;;;;5.10;3.72;;;36.40;40.30;;;;;;5072986;28;20024;-68
2021/06/13 05:38:39;;;;;;;4.00;3.60;;;35.40;41.20;;;;;;5063523;28;20040;-68
2021/06/13 05:41:05;;;;;;;4.30;3.90;;;34.50;42.00;;;;;;5072272;28;20484;-68
2021/06/13 05:43:31;;;;;;;4.93;3.97;;;33.60;43.10;;;;;;5072787;28;20035;-68
2021/06/13 05:45:58;;;;;;;5.05;4.32;;;32.90;44.10;;;;;;5064340;28;20358;-67
2021/06/13 05:48:24;;;;;;;5.43;4.00;;;32.40;44.80;;;;;;5070327;28;20104;-68
2021/06/13 05:50:50;;;;;;;5.20;4.30;;;31.90;45.40;;;;;;5072096;28;20112;-68
2021/06/13 05:53:16;;;;;;;4.30;3.80;;;31.50;46.30;;;;;;5070782;28;20111;-68
2021/06/13 05:55:42;;;;;;;5.15;3.72;;;31.20;46.70;;;;;;5072923;28;20062;-67
2021/06/13 05:58:08;;;;;;;4.00;3.60;;;30.90;47.60;;;;;;5071377;28;20064;-67
2021/06/13 06:00:36;;;;;;;6.63;4.03;;;30.70;48.20;;;;;;5070829;28;20029;-67
2021/06/13 06:03:03;;;;;;;5.45;4.32;;;30.50;48.50;;;;;;5069324;28;20428;-68
2021/06/13 06:05:30;;;;;;;6.70;4.57;;;30.30;48.70;;;;;;5069033;28;20040;-68
2021/06/13 06:07:56;;;;;;;6.95;4.55;;;30.10;48.90;;;;;;5060134;28;20040;-68
2021/06/13 06:10:23;;;;;;;5.55;4.50;;;29.90;49.50;;;;;;5071952;28;20499;-68
2021/06/13 06:12:49;;;;;;;5.18;4.63;;;29.70;49.60;;;;;;5071859;28;20074;-68
2021/06/13 06:15:19;;;;;;;5.60;4.55;;;29.50;49.90;;;;;;5073167;28;20098;-68
2021/06/13 06:17:45;;;;;;;;;;;29.40;50.00;;;;;;5071672;28;20028;-67
2021/06/13 06:20:12;;;;;;;4.55;3.90;;;29.20;50.20;;;;;;5073111;28;19928;-68
2021/06/13 06:22:38;;;;;;;5.28;4.13;;;29.00;50.20;;;;;;5072136;28;20021;-68
2021/06/13 06:25:06;;;;;;;4.50;4.10;;;28.90;50.60;;;;;;5075580;28;20109;-68
2021/06/13 06:27:31;;;;;;;5.20;4.28;;;28.80;51.00;;;;;;5072924;28;20040;-68
2021/06/13 06:29:57;;;;;;;6.07;3.92;;;28.70;51.20;;;;;;5074600;28;20461;-68
2021/06/13 06:32:23;;;;;;;4.65;4.10;;;28.60;51.70;;;;;;5074768;28;20028;-68
2021/06/13 06:34:48;;;;;;;6.50;5.75;;;28.60;52.10;;;;;;5076609;28;20024;-68
2021/06/13 06:37:14;;;;;;;6.43;4.60;;;28.50;52.80;;;;;;5071018;28;20024;-68
2021/06/13 06:39:40;;;;;;;5.50;3.97;;;28.50;52.70;;;;;;5075938;28;20032;-68
2021/06/13 06:42:06;;;;;;;5.10;3.97;;;28.40;52.50;;;;;;5074767;28;20028;-68
2021/06/13 06:44:31;;;;;;;4.95;4.40;;;28.40;52.50;;;;;;5073341;28;20028;-68
2021/06/13 06:47:02;;;;;;;6.53;4.15;;;28.30;52.50;;;;;;5075330;28;20096;-68
2021/06/13 06:49:29;;;;;;;4.65;4.15;;;28.30;53.00;;;;;;5076719;28;20025;-68
2021/06/13 06:51:54;;;;;;;5.45;4.43;;;28.20;52.80;;;;;;5074306;28;20062;-68
2021/06/13 06:54:20;;;;;;;4.68;4.07;;;28.20;52.80;;;;;;5075426;28;20032;-68
2021/06/13 06:56:46;;;;;;;5.18;4.28;;;28.20;53.60;;;;;;5071868;28;20024;-68
2021/06/13 06:59:11;;;;;;;4.50;4.07;;;28.20;53.70;;;;;;5076549;28;20032;-68
2021/06/13 07:01:38;;;;;;;4.20;3.80;;;28.10;53.70;;;;;;5072613;28;20028;-68
2021/06/13 07:04:04;;;;;;;4.97;3.55;;;28.20;53.80;;;;;;5070299;28;20040;-68
2021/06/13 07:06:30;;;;;;;6.10;3.88;;;28.20;53.70;;;;;;5073674;28;20071;-68
2021/06/13 07:08:56;;;;;;;4.13;3.72;;;28.20;53.90;;;;;;5075392;28;20028;-68
2021/06/13 07:11:21;;;;;;;4.78;3.85;;;28.20;53.30;;;;;;5072864;28;20024;-68
2021/06/13 07:13:47;;;;;;;5.18;3.88;;;28.20;53.40;;;;;;5075405;28;20025;-68
2021/06/13 07:16:13;;;;;;;4.55;3.53;;;28.10;53.30;;;;;;5076093;28;20029;-68
2021/06/13 07:18:38;;;;;;;4.10;3.70;;;28.10;53.00;;;;;;5063610;28;20037;-68
2021/06/13 07:21:05;;;;;;;6.05;3.33;;;28.10;53.10;;;;;;5073459;28;20029;-68
2021/06/13 07:23:31;;;;;;;4.13;3.50;;;28.10;53.40;;;;;;5074834;28;20038;-68
2021/06/13 07:25:57;;;;;;;6.53;3.45;;;28.10;53.40;;;;;;5075786;28;20024;-68
2021/06/13 07:28:22;;;;;;;5.05;3.38;;;28.10;53.60;;;;;;5072192;28;20070;-68
2021/06/13 07:30:48;;;;;;;4.70;3.97;;;28.10;52.80;;;;;;5073037;28;20107;-68
2021/06/13 07:33:14;;;;;;;4.70;3.88;;;28.10;52.80;;;;;;5070744;28;20031;-68
2021/06/13 07:35:40;;;;;;;6.45;3.90;;;28.00;53.10;;;;;;5068548;28;20536;-68
2021/06/13 07:38:05;;;;;;;5.72;4.07;;;28.10;53.10;;;;;;5069802;28;20103;-68
2021/06/13 07:40:32;;;;;;;5.00;3.67;;;28.10;52.60;;;;;;5072656;28;20115;-68
2021/06/13 07:42:58;;;;;;;4.45;3.40;;;28.00;52.50;;;;;;5067567;28;20021;-68
2021/06/13 07:45:25;;;;;;;4.90;3.78;;;28.00;52.90;;;;;;5071879;28;20056;-68
2021/06/13 07:47:51;;;;;;;9.07;4.40;;;28.00;52.80;;;;;;5065646;28;20020;-68
2021/06/13 07:50:18;;;;;;;6.65;4.80;;;28.10;52.50;;;;;;5067741;28;20364;-68
2021/06/13 07:52:46;;;;;;;5.45;3.70;;;28.00;51.90;;;;;;5073114;28;20024;-68
2021/06/13 07:55:14;;;;;;;4.60;3.50;;;28.00;52.00;;;;;;5073244;28;20024;-68
2021/06/13 07:57:42;;;;;;;3.85;3.45;;;28.00;51.40;;;;;;5067503;28;20017;-68
2021/06/13 08:00:09;;;;;;;5.20;3.35;;;28.00;51.80;;;;;;5073827;28;20028;-68
2021/06/13 08:02:39;;;;;;;4.65;3.10;;;28.10;51.50;;;;;;5071270;28;20034;-68
2021/06/13 08:05:11;;;;;;;5.47;3.72;;;28.10;51.30;;;;;;5074093;28;20396;-68
2021/06/13 08:07:38;;;;;;;5.30;3.75;;;28.10;50.90;;;;;;5073403;28;20028;-68
2021/06/13 08:10:06;;;;;;;5.13;3.47;;;28.10;51.20;;;;;;5074109;28;20033;-68
2021/06/13 08:12:32;;;;;;;3.90;3.40;;;28.10;51.30;;;;;;5073842;28;20024;-68
2021/06/13 08:14:58;;;;;;;3.80;3.45;;;28.00;51.30;;;;;;5070903;28;20025;-68
2021/06/13 08:17:24;;;;;;;3.47;3.17;;;28.10;50.80;;;;;;5074916;28;20077;-68
2021/06/13 08:19:49;;;;;;;3.38;3.08;;;28.00;50.80;;;;;;5072536;28;20528;-68
2021/06/13 08:22:15;;;;;;;6.15;3.30;;;28.10;50.80;;;;;;5074282;28;20104;-68
2021/06/13 08:24:40;;;;;;;7.80;3.63;;;28.10;50.80;;;;;;5073979;28;20029;-68
2021/06/13 08:27:07;;;;;;;5.82;3.70;;;28.10;50.60;;;;;;5074145;28;20032;-68
2021/06/13 08:29:33;;;;;;;4.18;3.15;;;28.00;50.80;;;;;;5074733;28;20035;-68
2021/06/13 08:31:59;;;;;;;5.65;3.55;;;28.00;51.10;;;;;;5073523;28;20449;-68
2021/06/13 08:34:25;;;;;;;3.75;2.97;;;28.00;51.50;;;;;;5070632;28;20066;-68
2021/06/13 08:36:51;;;;;;;5.43;3.50;;;28.00;51.80;;;;;;5073115;28;20503;-68
2021/06/13 08:39:17;;;;;;;4.68;3.42;;;28.00;50.90;;;;;;5071308;28;20052;-68
2021/06/13 08:41:43;;;;;;;6.80;4.47;;;28.00;51.20;;;;;;5074538;28;20067;-68
2021/06/13 08:44:09;;;;;;;4.97;3.75;;;27.90;52.50;;;;;;5073935;28;20162;-68
2021/06/13 08:46:37;;;;;;;5.15;3.58;;;27.90;53.00;;;;;;5072626;28;20466;-68
2021/06/13 08:49:03;;;;;;;5.35;3.80;;;27.80;53.30;;;;;;5059931;28;20020;-68
2021/06/13 08:51:29;;;;;;;3.78;3.28;;;27.60;53.80;;;;;;5074256;28;20468;-68
2021/06/13 08:53:55;;;;;;;3.63;3.25;;;27.50;53.90;;;;;;5074160;28;20055;-68
2021/06/13 08:56:21;;;;;;;4.53;3.50;;;27.30;54.60;;;;;;5074158;28;20418;-68
2021/06/13 08:58:48;;;;;;;3.72;3.28;;;27.10;55.50;;;;;;5072798;28;20024;-68
2021/06/13 09:01:15;;;;;;;4.00;3.60;;;26.90;56.30;;;;;;5073580;28;20024;-68
2021/06/13 09:03:41;;;;;;;3.38;3.08;;;26.80;56.70;;;;;;5073232;28;20135;-68
2021/06/13 09:06:08;;;;;;;3.72;2.95;;;26.70;57.00;;;;;;5072311;28;20354;-68
2021/06/13 09:08:35;;;;;;;3.80;3.40;;;26.50;56.80;;;;;;5072980;28;20059;-68
2021/06/13 09:11:02;;;;;;;5.47;3.45;;;26.30;57.10;;;;;;5069273;28;20040;-68
2021/06/13 09:13:29;;;;;;;4.35;3.80;;;26.10;56.70;;;;;;5074081;28;20043;-68
2021/06/13 09:16:00;;;;;;;4.95;3.53;;;25.90;57.10;;;;;;5074140;28;20449;-68
2021/06/13 09:18:40;;;;;;;5.57;3.85;;;25.50;57.30;;;;;;5156014;27;247089;-69
2021/06/13 09:21:09;;;;;;;13.65;7.20;;;25.10;57.90;;;;;;5138523;27;20037;-69
2021/06/13 09:23:37;;;;;;;17.67;9.63;;;24.70;58.20;;;;;;5146785;27;20030;-69
2021/06/13 09:26:07;;;;;;;19.63;8.55;;;24.40;59.00;;;;;;5133872;27;20047;-68
2021/06/13 09:28:36;;;;;;;15.05;8.05;;;24.00;59.60;;;;;;5147926;27;20030;-69
2021/06/13 09:31:02;;;;;;;15.68;8.25;;;23.80;60.30;;;;;;5146056;27;20024;-68
2021/06/13 09:33:36;;;;;;;12.35;7.32;;;23.60;61.30;;;;;;5143611;27;20366;-68
2021/06/13 09:36:04;;;;;;;9.77;5.88;;;23.50;62.00;;;;;;5135979;27;20015;-69
2021/06/13 09:38:54;;;;;;;9.20;5.30;;;23.50;62.60;;;;;;5140038;27;20080;-69
2021/06/13 09:41:23;;;;;;;8.85;4.72;;;23.50;63.10;;;;;;5129169;27;20474;-69
2021/06/13 09:43:59;;;;;;;5.60;4.53;;;23.40;63.30;;;;;;5141199;27;20374;-69
2021/06/13 09:46:27;;;;;;;8.15;5.32;;;23.30;63.50;;;;;;5150206;27;20030;-68
2021/06/13 09:48:58;;;;;;;8.88;5.20;;;23.30;63.90;;;;;;5151404;27;20075;-69
2021/06/13 09:51:32;;;;;;;10.25;6.18;;;23.20;64.60;;;;;;5149203;27;20041;-69
2021/06/13 09:53:58;;;;;;;12.90;6.78;;;23.20;64.70;;;;;;5135174;27;20035;-69
2021/06/13 09:56:36;;;;;;;12.57;7.00;;;23.30;65.70;;;;;;5140374;27;20034;-69
2021/06/13 09:59:16;;;;;;;12.15;6.47;;;23.40;65.50;;;;;;5133362;27;20409;-69
2021/06/13 10:01:52;;;;;;;10.67;6.03;;;23.50;64.90;;;;;;5147119;27;20050;-69
2021/06/13 10:04:18;;;;;;;9.63;5.75;;;23.60;65.00;;;;;;5148627;27;20034;-69
2021/06/13 10:06:48;;;;;;;8.65;5.70;;;23.70;64.50;;;;;;5144209;27;20031;-69
2021/06/13 10:09:15;;;;;;;10.70;6.20;;;23.60;63.90;;;;;;5115370;27;20385;-69
2021/06/13 10:11:41;;;;;;;9.55;6.15;;;23.50;64.00;;;;;;5120160;27;20077;-69
2021/06/13 10:14:14;;;;;;;7.05;4.82;;;23.50;64.40;;;;;;5128231;27;20058;-69
2021/06/13 10:16:51;;;;;;;4.10;3.70;;;23.40;64.40;;;;;;5127122;27;20023;-69
2021/06/13 10:19:26;;;;;;;5.28;3.72;;;23.40;63.80;;;;;;5111877;28;20031;-68
2021/06/13 10:21:57;;;;;;;4.72;3.40;;;23.40;63.60;;;;;;5120022;28;20679;-69
2021/06/13 10:24:25;;;;;;;3.65;3.10;;;23.50;64.10;;;;;;5123748;28;20023;-69
2021/06/13 10:26:57;;;;;;;5.72;3.92;;;23.50;63.50;;;;;;5128568;27;20027;-69
2021/06/13 10:29:26;;;;;;;4.32;3.50;;;23.60;64.10;;;;;;5106228;28;20027;-69
2021/06/13 10:31:57;;;;;;;4.10;3.58;;;23.70;65.00;;;;;;5108729;28;20050;-69
2021/06/13 10:34:24;;;;;;;7.43;4.30;;;23.80;64.80;;;;;;5095820;28;20032;-69
2021/06/13 10:36:52;;;;;;;5.95;4.25;;;23.90;65.60;;;;;;5097294;28;20399;-69
2021/06/13 10:39:24;;;;;;;8.95;4.93;;;24.00;65.90;;;;;;5115132;28;20019;-69
2021/06/13 10:41:50;;;;;;;9.80;5.38;;;24.10;66.50;;;;;;5100813;28;20028;-69
2021/06/13 10:44:18;;;;;;;11.20;6.18;;;24.20;66.50;;;;;;5098227;28;20016;-69
2021/06/13 10:46:49;;;;;;;12.40;6.95;;;24.30;67.00;;;;;;5096958;28;20028;-69
2021/06/13 10:49:36;;;;;;;11.70;7.45;;;24.50;65.60;;;;;;5095506;28;20031;-69
2021/06/13 10:52:15;;;;;;;11.93;6.75;;;24.70;65.60;;;;;;5108575;28;20072;-69
2021/06/13 10:54:51;;;;;;;11.25;6.68;;;24.80;65.30;;;;;;5104964;28;20032;-69
2021/06/13 10:57:20;;;;;;;6.47;4.47;;;24.90;65.10;;;;;;5100325;28;20066;-69
2021/06/13 10:59:48;;;;;;;4.28;3.83;;;25.00;63.60;;;;;;5115697;28;20069;-69
2021/06/13 11:02:19;;;;;;;4.18;3.25;;;25.10;63.30;;;;;;5101683;28;20094;-69
2021/06/13 11:04:49;;;;;;;;;;;25.20;62.40;;;;;;5107322;28;20020;-69
2021/06/13 11:07:30;;;;;;;7.75;4.60;;;25.20;62.40;;;;;;5112805;28;19961;-69
2021/06/13 11:10:13;;;;;;;6.85;4.88;;;25.30;62.50;;;;;;5107601;28;20134;-69
2021/06/13 11:13:00;;;;;;;7.10;4.63;;;25.30;62.30;;;;;;5096652;28;20035;-69
2021/06/13 11:15:26;;;;;;;9.65;5.72;;;25.20;62.50;;;;;;5106779;28;20184;-69
2021/06/13 11:17:54;;;;;;;6.80;5.03;;;25.10;62.70;;;;;;5113503;28;20123;-69
2021/06/13 11:21:03;;;;;;;8.75;5.68;;;25.00;62.60;;;;;;5115106;28;20069;-68
2021/06/13 11:23:23;;;;;;;8.77;5.57;;;24.90;62.80;;;;;;5102109;28;20051;-69
2021/06/13 11:25:51;;;;;;;10.02;6.47;;;24.80;63.30;;;;;;5112658;28;20115;-69
2021/06/13 11:28:25;;;;;;;8.85;5.10;;;24.90;63.70;;;;;;5104429;28;20486;-69
2021/06/13 11:30:53;;;;;;;7.70;4.30;;;24.90;64.00;;;;;;5103267;28;20107;-69
2021/06/13 11:33:39;;;;;;;4.43;3.65;;;24.90;63.10;;;;;;5107375;28;20024;-69
2021/06/13 11:36:17;;;;;;;5.13;3.60;;;25.00;63.00;;;;;;5098563;28;20117;-69
2021/06/13 11:38:50;;;;;;;5.60;3.70;;;25.10;62.60;;;;;;5097205;28;20028;-69
2021/06/13 11:41:27;;;;;;;5.35;3.35;;;25.10;62.20;;;;;;5101512;28;20089;-69
2021/06/13 11:43:53;;;;;;;4.30;3.80;;;25.10;62.30;;;;;;5098675;28;20360;-69
2021/06/13 11:46:35;;;;;;;8.70;4.30;;;25.10;62.60;;;;;;5101950;28;20038;-69
2021/06/13 11:49:03;;;;;;;5.68;3.30;;;25.20;62.30;;;;;;5107627;28;20024;-69
2021/06/13 11:51:29;;;;;;;4.80;3.55;;;25.20;62.40;;;;;;5101337;28;20024;-69
2021/06/13 11:54:05;;;;;;;3.92;3.00;;;25.20;62.50;;;;;;5104344;27;20120;-69
2021/06/13 11:56:34;;;;;;;3.78;3.40;;;25.30;62.00;;;;;;5097336;28;20028;-69
2021/06/13 11:59:11;;;;;;;5.60;3.40;;;25.30;61.50;;;;;;5100966;28;20016;-69
2021/06/13 12:01:39;;;;;;;3.58;3.28;;;25.30;61.30;;;;;;5104982;28;20019;-69
2021/06/13 12:04:07;;;;;;;6.28;3.40;;;25.20;61.40;;;;;;5108067;28;20021;-69
2021/06/13 12:06:37;;;;;;;5.50;3.50;;;25.10;61.40;;;;;;5101135;28;20058;-69
2021/06/13 12:09:23;;;;;;;8.77;4.00;;;25.00;61.90;;;;;;5098234;28;20058;-69
2021/06/13 12:11:54;;;;;;;6.90;3.47;;;24.80;62.60;;;;;;5100921;28;20608;-69
2021/06/13 12:14:36;;;;;;;7.63;3.78;;;24.80;63.90;;;;;;5094201;28;20020;-69
2021/06/13 12:17:10;;;;;;;4.90;3.28;;;24.60;64.60;;;;;;5106734;28;20054;-69
2021/06/13 12:19:48;;;;;;;4.80;2.75;;;24.40;65.40;;;;;;5109700;28;20028;-69
2021/06/13 12:22:53;;;;;;;3.17;2.88;;;24.20;66.40;;;;;;5105939;28;20027;-69
2021/06/13 12:28:06;;;;;;;5.07;3.50;;;23.90;67.00;;;;;;5109609;28;20438;-69
2021/06/13 12:30:33;;;;;;;3.97;3.30;;;23.80;67.70;;;;;;5110886;28;20022;-69
2021/06/13 12:33:04;;;;;;;4.85;3.13;;;23.70;68.30;;;;;;5110091;28;20425;-69
2021/06/13 12:35:31;;;;;;;;;;;23.60;68.50;;;;;;5110229;28;20029;-69
2021/06/13 12:37:57;;;;;;;3.38;2.78;;;23.50;68.00;;;;;;5111675;28;19919;-69
2021/06/13 12:40:23;;;;;;;4.03;3.58;;;23.50;69.10;;;;;;5108512;28;20016;-69
2021/06/13 12:42:48;;;;;;;5.00;3.33;;;23.30;68.90;;;;;;5106870;28;20038;-69
2021/06/13 12:45:16;;;;;;;3.33;2.97;;;23.20;68.30;;;;;;5110749;28;20035;-68
2021/06/13 12:47:45;;;;;;;5.47;4.20;;;22.90;68.60;;;;;;5109510;28;20027;-68
2021/06/13 12:50:20;;;;;;;5.25;4.30;;;22.70;69.60;;;;;;5108099;28;20031;-68
2021/06/13 12:52:51;;;;;;;6.15;4.28;;;22.50;70.30;;;;;;5108714;28;20076;-68
2021/06/13 12:55:17;;;;;;;5.47;3.83;;;22.30;71.00;;;;;;5106706;28;20093;-68
2021/06/13 12:57:47;;;;;;;6.18;3.90;;;22.20;71.20;;;;;;5107026;28;20535;-68
2021/06/13 13:00:14;;;;;;;5.40;3.80;;;22.10;72.20;;;;;;5109377;28;20020;-68